»·PEaware :: N503AM KAVX-KSAN

N503AM :: KAVX-KSAN

FLIGHT INFORMATION

Flight Status: Arrived
Operator: Privately registered:
United States
More flights under this callsign
Pilot: Gary H. (18965)
Aircraft: CESSNA 172 SKYHAWK
(C172)
More flights by this aircraft type
Origin: KAVX Catalina
United States
Destination: KSAN San Diego Intl-Lindbergh
United States
More flights between these airports :: More routes between these airports
Route: SXC V208 OCN V23 MZB
File this flight plan on PilotEdge
Remarks:
Altitude:
(Current/Filed)
5,000ft
Speed:
(Current/Filed)
110kts
Departed: 10-Sep-19 08:23 PM
Arrived: 10-Sep-19 09:14 PM
Distance/Time
Traveled:
74nm/0:51
Distance/Time
To Go:
Arrived

Flight Plot

Page will automatically refresh every two minutes.


Map Options




Map Legend


Flown Route
Filed Route
Departure Airport
Arrival Airport
Navaid (VOR, NDB)
Fix

Horizontal Profiles

Position Reports

Time Latitude Longitude Heading Altitude Ground
Speed
10-Sep-19 20:17 33.403946 -118.415156 146 1545ft 0kts
10-Sep-19 20:19 33.403897 -118.415127 162 1545ft 0kts
10-Sep-19 20:20 33.403872 -118.415118 164 1545ft 1kts
10-Sep-19 20:21 33.406080 -118.413281 54 1521ft 28kts
10-Sep-19 20:22 33.407134 -118.411491 56 1500ft 0kts
10-Sep-19 20:23 33.402535 -118.420051 236 1704ft 74kts
10-Sep-19 20:24 33.390774 -118.446752 246 2318ft 98kts
10-Sep-19 20:25 33.371342 -118.438274 122 3050ft 106kts
10-Sep-19 20:26 33.355762 -118.407015 124 3605ft 115kts
10-Sep-19 20:27 33.338860 -118.373733 124 4100ft 118kts
10-Sep-19 20:28 33.328722 -118.336152 102 4595ft 119kts
10-Sep-19 20:29 33.322307 -118.297435 101 4981ft 116kts
10-Sep-19 20:30 33.317662 -118.258922 98 4977ft 118kts
10-Sep-19 20:31 33.313914 -118.219811 98 4972ft 118kts
10-Sep-19 20:32 33.310230 -118.180839 98 5017ft 115kts
10-Sep-19 20:33 33.306638 -118.142383 98 5025ft 117kts
10-Sep-19 20:34 33.302982 -118.103289 98 5022ft 118kts
10-Sep-19 20:35 33.299332 -118.064056 98 5020ft 118kts
10-Sep-19 20:36 33.295909 -118.024848 98 5018ft 118kts
10-Sep-19 20:37 33.293918 -117.985725 93 5016ft 117kts
10-Sep-19 20:38 33.293722 -117.946695 93 5014ft 117kts
10-Sep-19 20:39 33.293766 -117.907774 93 5012ft 116kts
10-Sep-19 20:39 33.293961 -117.875632 93 5011ft 115kts
10-Sep-19 20:40 33.294355 -117.837288 93 5009ft 115kts
10-Sep-19 20:42 33.291908 -117.793254 102 5007ft 113kts
10-Sep-19 20:42 33.288033 -117.762352 102 5006ft 113kts
10-Sep-19 20:43 33.284682 -117.724884 100 5005ft 113kts
10-Sep-19 20:45 33.280981 -117.681230 100 5004ft 113kts
10-Sep-19 20:45 33.278344 -117.650069 100 5004ft 113kts
10-Sep-19 20:46 33.274640 -117.612697 102 5004ft 113kts
10-Sep-19 20:47 33.270402 -117.575490 103 5003ft 113kts
10-Sep-19 20:48 33.263533 -117.538778 107 5005ft 113kts
10-Sep-19 20:49 33.256247 -117.501879 107 5008ft 114kts
10-Sep-19 20:50 33.248544 -117.464266 107 4975ft 115kts
10-Sep-19 20:51 33.240120 -117.427418 127 4976ft 113kts
10-Sep-19 20:52 33.213496 -117.411124 163 4980ft 107kts
10-Sep-19 20:53 33.185846 -117.398042 163 4985ft 107kts
10-Sep-19 20:54 33.158398 -117.385111 163 4989ft 105kts
10-Sep-19 20:55 33.131138 -117.372361 163 4992ft 104kts
10-Sep-19 20:56 33.104233 -117.359912 163 4993ft 103kts
10-Sep-19 20:57 33.077287 -117.347533 163 4993ft 103kts
10-Sep-19 20:58 33.050354 -117.335260 163 4984ft 103kts
10-Sep-19 20:59 33.023514 -117.323120 163 4975ft 103kts
10-Sep-19 21:00 32.996499 -117.310988 163 4967ft 103kts
10-Sep-19 21:01 32.969583 -117.299038 163 4569ft 103kts
10-Sep-19 21:02 32.942734 -117.287402 163 4061ft 102kts
10-Sep-19 21:03 32.915664 -117.275959 163 3525ft 105kts
10-Sep-19 21:04 32.886973 -117.264280 163 2993ft 102kts
10-Sep-19 21:05 32.862836 -117.254334 163 2984ft 90kts
10-Sep-19 21:06 32.839414 -117.241696 135 2856ft 105kts
10-Sep-19 21:07 32.823361 -117.211829 127 2241ft 107kts
10-Sep-19 21:08 32.807925 -117.186026 126 2103ft 89kts
10-Sep-19 21:09 32.787977 -117.168400 163 1966ft 98kts
10-Sep-19 21:10 32.761485 -117.160627 173 1728ft 97kts
10-Sep-19 21:11 32.735738 -117.161822 187 1488ft 73kts
10-Sep-19 21:12 32.731988 -117.183214 285 32ft 60kts
10-Sep-19 21:13 32.732455 -117.188594 182 15ft 0kts
10-Sep-19 21:14 32.731303 -117.184867 107 14ft 20kts
10-Sep-19 21:15 32.728826 -117.179186 120 14ft 7kts
10-Sep-19 21:16 32.728590 -117.179056 53 14ft 10kts
10-Sep-19 21:17 32.728629 -117.178990 56 14ft 0kts
10-Sep-19 21:18 32.728629 -117.178990 56 14ft 0kts
10-Sep-19 21:19 32.728629 -117.178990 56 14ft 0kts
10-Sep-19 21:20 32.728629 -117.178990 56 14ft 0kts
10-Sep-19 21:21 32.728629 -117.178990 56 14ft 0kts
10-Sep-19 21:22 32.728629 -117.178990 56 14ft 0kts
10-Sep-19 21:23 32.728629 -117.178990 56 14ft 0kts
10-Sep-19 21:24 32.728629 -117.178990 56 14ft 0kts
10-Sep-19 21:25 32.728629 -117.178990 56 14ft 0kts
10-Sep-19 21:26 32.728629 -117.178990 56 14ft 0kts
10-Sep-19 21:27 32.728629 -117.178990 56 14ft 0kts

Navigation Log

Ident Type
Flight plan parsing failed, navigation log unavailable